Time;durP1;ratioP1;P1;durP2;ratioP2;P2;SDS_P1;SDS_P2;PMS_P1;PMS_P2;Temp;Humidity;BMP_temperature;BMP_pressure;BME280_temperature;BME280_humidity;BME280_pressure;Samples;Min_cycle;Max_cycle;Signal;HPM_P1;HPM_P2
2022/11/10 00:00:34;;;;;;;2.78;1.30;;;9.40;99.90;;;;;;5115962;28;20089;-65
2022/11/10 00:03:05;;;;;;;2.55;1.30;;;9.40;99.90;;;;;;5115933;28;20081;-65
2022/11/10 00:05:31;;;;;;;;;;;9.40;99.90;;;;;;5097999;28;20475;-65
2022/11/10 00:07:57;;;;;;;5.78;1.10;;;9.40;99.90;;;;;;5115823;28;19915;-65
2022/11/10 00:10:23;;;;;;;4.78;0.90;;;9.40;99.90;;;;;;5115761;28;20402;-65
2022/11/10 00:12:48;;;;;;;3.92;1.50;;;9.60;99.90;;;;;;5115398;28;20044;-65
2022/11/10 00:18:01;;;;;;;4.85;1.00;;;9.40;99.90;;;;;;5115315;28;20127;-65
2022/11/10 00:20:27;;;;;;;3.75;1.60;;;9.40;99.90;;;;;;5114194;28;20047;-65
2022/11/10 00:22:53;;;;;;;6.97;1.55;;;9.40;99.90;;;;;;5115189;28;20039;-65
2022/11/10 00:25:19;;;;;;;3.05;1.02;;;9.40;99.90;;;;;;5114149;28;20132;-65
2022/11/10 00:27:45;;;;;;;2.85;1.50;;;9.40;99.90;;;;;;5115476;28;20479;-65
2022/11/10 00:30:11;;;;;;;4.70;1.20;;;9.40;99.90;;;;;;5115329;28;20050;-65
2022/11/10 00:32:37;;;;;;;2.90;1.55;;;9.40;99.90;;;;;;5115346;28;20036;-65
2022/11/10 00:35:03;;;;;;;5.57;1.20;;;9.40;99.90;;;;;;5113711;28;20043;-65
2022/11/10 00:37:29;;;;;;;5.30;1.63;;;9.40;99.90;;;;;;5115273;28;20027;-65
2022/11/10 00:39:55;;;;;;;4.68;1.17;;;9.30;99.90;;;;;;5114907;28;20038;-65
2022/11/10 00:42:20;;;;;;;3.17;1.33;;;9.30;99.90;;;;;;5113778;28;20086;-65
2022/11/10 00:44:46;;;;;;;3.20;1.48;;;9.30;99.90;;;;;;5114741;28;20083;-65
2022/11/10 00:47:12;;;;;;;4.85;1.58;;;9.30;99.90;;;;;;5113529;28;20051;-65
2022/11/10 00:49:37;;;;;;;6.22;1.67;;;9.30;99.90;;;;;;5114664;28;20130;-65
2022/11/10 00:52:03;;;;;;;6.03;1.50;;;9.30;99.90;;;;;;5114708;28;20032;-65
2022/11/10 00:54:29;;;;;;;7.75;2.00;;;9.30;99.90;;;;;;5096637;28;20073;-65
2022/11/10 00:56:55;;;;;;;3.65;1.48;;;9.20;99.90;;;;;;5113291;28;20044;-65
2022/11/10 00:59:20;;;;;;;4.43;1.42;;;9.30;99.90;;;;;;5114772;28;20061;-65
2022/11/10 01:01:46;;;;;;;4.22;1.65;;;9.30;99.90;;;;;;5114672;28;20118;-65
2022/11/10 01:04:12;;;;;;;8.68;2.10;;;9.30;99.90;;;;;;5114743;28;20133;-65
2022/11/10 01:06:37;;;;;;;4.03;2.17;;;9.30;99.90;;;;;;5113348;28;20058;-67
2022/11/10 01:09:03;;;;;;;5.40;1.58;;;9.20;99.90;;;;;;5114663;28;20036;-65
2022/11/10 01:11:29;;;;;;;9.63;1.83;;;9.20;99.90;;;;;;5114614;28;20071;-65
2022/11/10 01:13:55;;;;;;;7.88;1.75;;;9.30;99.90;;;;;;5114210;28;20043;-65
2022/11/10 01:16:27;;;;;;;7.63;1.92;;;9.20;99.90;;;;;;5114503;28;20057;-64
2022/11/10 01:18:55;;;;;;;4.35;1.88;;;9.20;99.90;;;;;;5113240;28;20071;-65
2022/11/10 01:21:22;;;;;;;1.45;1.33;;;9.30;99.90;;;;;;5114383;28;20056;-65
2022/11/10 01:23:48;;;;;;;11.98;1.85;;;9.20;99.90;;;;;;5114139;28;20498;-65
2022/11/10 01:26:14;;;;;;;3.97;2.05;;;9.70;99.90;;;;;;5114361;28;20048;-64
2022/11/10 01:28:40;;;;;;;4.22;2.10;;;9.20;99.90;;;;;;5114354;28;20109;-64
2022/11/10 01:31:11;;;;;;;5.30;1.83;;;9.10;99.90;;;;;;5113816;28;20039;-65
2022/11/10 01:33:37;;;;;;;;;;;9.10;99.90;;;;;;5114660;28;20467;-64
2022/11/10 01:36:04;;;;;;;5.93;1.85;;;9.10;99.90;;;;;;5114125;28;20027;-65
2022/11/10 01:38:32;;;;;;;8.82;1.98;;;9.10;99.90;;;;;;5114175;28;20032;-65
2022/11/10 01:40:58;;;;;;;7.72;2.58;;;9.10;99.90;;;;;;5113800;28;20035;-65
2022/11/10 01:43:25;;;;;;;5.53;1.50;;;9.10;99.90;;;;;;5114214;28;20024;-65
2022/11/10 01:45:53;;;;;;;6.05;2.17;;;9.10;99.90;;;;;;5113662;28;20051;-65
2022/11/10 01:48:28;;;;;;;9.45;1.25;;;9.10;99.90;;;;;;5114105;28;20077;-64
2022/11/10 01:50:54;;;;;;;5.78;1.67;;;9.10;99.90;;;;;;5114081;28;20050;-64
2022/11/10 01:53:26;;;;;;;7.07;1.80;;;9.10;99.90;;;;;;5113636;28;20036;-65
2022/11/10 01:55:53;;;;;;;5.38;1.73;;;9.10;99.90;;;;;;5113915;28;20440;-65
2022/11/10 01:58:24;;;;;;;4.40;1.80;;;9.30;99.90;;;;;;5113973;28;20040;-65
2022/11/10 02:00:50;;;;;;;4.28;2.67;;;9.10;99.90;;;;;;5113794;28;20526;-65
2022/11/10 02:03:33;;;;;;;7.47;2.83;;;9.10;99.90;;;;;;5113853;28;20145;-65
2022/11/10 02:05:59;;;;;;;4.05;1.83;;;9.00;99.90;;;;;;5112649;28;20055;-65
2022/11/10 02:08:26;;;;;;;7.90;2.33;;;9.00;99.90;;;;;;5113582;28;20071;-64
2022/11/10 02:10:52;;;;;;;6.28;2.90;;;9.00;99.90;;;;;;5112344;28;20039;-65
2022/11/10 02:13:18;;;;;;;5.03;1.92;;;9.00;99.90;;;;;;5113794;28;20042;-65
2022/11/10 02:15:44;;;;;;;4.72;1.95;;;9.10;99.90;;;;;;5113690;28;20040;-65
2022/11/10 02:18:10;;;;;;;6.32;1.60;;;9.00;99.90;;;;;;5112183;28;20406;-65
2022/11/10 02:20:35;;;;;;;7.35;2.03;;;9.10;99.90;;;;;;5113753;28;20047;-65
2022/11/10 02:23:33;;;;;;;5.30;1.48;;;9.00;99.90;;;;;;5113404;28;20523;-65
2022/11/10 02:26:00;;;;;;;7.95;2.50;;;9.10;99.90;;;;;;5092359;28;20043;-65
2022/11/10 02:28:26;;;;;;;3.63;1.92;;;9.10;99.90;;;;;;5113649;28;20044;-65
2022/11/10 02:30:53;;;;;;;3.30;1.58;;;9.00;99.90;;;;;;5113313;28;20034;-65
2022/11/10 02:33:19;;;;;;;5.70;2.00;;;9.20;99.90;;;;;;5112065;28;20040;-66
2022/11/10 02:35:46;;;;;;;4.65;1.90;;;9.10;99.90;;;;;;5113362;28;20043;-65
2022/11/10 02:38:13;;;;;;;2.47;1.65;;;9.10;99.90;;;;;;5112084;28;20046;-66
2022/11/10 02:40:39;;;;;;;4.43;1.80;;;8.90;99.90;;;;;;5113192;28;20036;-65
2022/11/10 02:43:08;;;;;;;7.45;1.75;;;9.10;99.90;;;;;;5113309;28;20036;-65
2022/11/10 02:45:34;;;;;;;3.80;1.95;;;9.10;99.90;;;;;;5115683;28;20060;-65
2022/11/10 02:47:59;;;;;;;4.28;1.45;;;9.10;99.90;;;;;;5117420;28;20126;-65
2022/11/10 02:50:25;;;;;;;4.43;1.67;;;9.10;99.90;;;;;;5117016;28;20406;-65
2022/11/10 02:52:51;;;;;;;7.30;2.00;;;9.10;99.90;;;;;;5117242;28;20036;-65
2022/11/10 02:55:16;;;;;;;7.90;1.40;;;9.10;99.90;;;;;;5117129;28;20479;-65
2022/11/10 02:57:42;;;;;;;5.53;1.83;;;9.10;99.90;;;;;;5116960;28;20481;-65
2022/11/10 03:00:08;;;;;;;4.13;1.42;;;9.10;99.90;;;;;;5116739;28;20118;-65
2022/11/10 03:02:34;;;;;;;4.18;1.55;;;9.20;99.90;;;;;;5115852;28;20077;-65
2022/11/10 03:05:00;;;;;;;8.18;1.70;;;9.20;99.90;;;;;;5117047;28;20424;-65
2022/11/10 03:07:25;;;;;;;4.35;1.33;;;9.10;99.90;;;;;;5116761;27;20448;-65
2022/11/10 03:09:51;;;;;;;4.47;1.45;;;9.10;99.90;;;;;;5116966;28;20042;-65
2022/11/10 03:12:17;;;;;;;3.42;1.42;;;9.40;99.90;;;;;;5116914;28;20039;-65
2022/11/10 03:14:43;;;;;;;7.30;2.25;;;9.10;99.90;;;;;;5116485;28;20185;-64
2022/11/10 03:17:09;;;;;;;4.53;1.63;;;9.20;99.90;;;;;;5116723;28;20122;-65
2022/11/10 03:19:34;;;;;;;12.75;2.03;;;9.20;99.90;;;;;;5115529;28;20389;-65
2022/11/10 03:22:00;;;;;;;3.83;1.77;;;9.20;99.90;;;;;;5116793;28;20038;-65
2022/11/10 03:24:26;;;;;;;10.23;2.17;;;9.20;99.90;;;;;;5116693;28;20122;-65
2022/11/10 03:26:52;;;;;;;5.38;1.92;;;9.20;99.90;;;;;;5116570;28;20094;-65
2022/11/10 03:29:17;;;;;;;6.05;1.90;;;9.20;99.90;;;;;;5116711;28;20035;-65
2022/11/10 03:31:43;;;;;;;3.35;3.03;;;9.40;99.90;;;;;;5116292;28;20031;-64
2022/11/10 03:34:09;;;;;;;2.80;1.50;;;9.20;99.90;;;;;;5116321;28;20032;-65
2022/11/10 03:36:34;;;;;;;4.40;2.05;;;9.10;99.90;;;;;;5116352;28;20046;-65
2022/11/10 03:39:00;;;;;;;3.35;1.75;;;9.20;99.90;;;;;;5114955;28;20039;-65
2022/11/10 03:41:26;;;;;;;6.05;2.10;;;9.10;99.90;;;;;;5116267;28;20039;-65
2022/11/10 03:43:51;;;;;;;3.03;1.80;;;9.10;99.90;;;;;;5116345;28;20031;-65
2022/11/10 03:46:18;;;;;;;10.40;2.30;;;9.10;99.90;;;;;;5115847;28;20448;-65
2022/11/10 03:48:44;;;;;;;5.40;2.15;;;9.10;99.90;;;;;;5116280;28;20039;-65
2022/11/10 03:51:09;;;;;;;4.80;2.25;;;9.00;99.90;;;;;;5115875;28;20044;-65
2022/11/10 03:53:35;;;;;;;4.72;2.58;;;9.10;99.90;;;;;;5116134;28;20119;-65
2022/11/10 03:56:02;;;;;;;5.28;1.92;;;9.20;99.90;;;;;;5113958;28;20040;-65
2022/11/10 03:58:28;;;;;;;7.13;1.90;;;9.10;99.90;;;;;;5116039;28;20036;-65
2022/11/10 04:00:54;;;;;;;2.97;1.83;;;9.10;99.90;;;;;;5115997;28;20069;-65
2022/11/10 04:03:20;;;;;;;4.95;2.17;;;9.10;99.90;;;;;;5115941;28;20110;-64
2022/11/10 04:15:40;;;;;;;4.00;2.05;;;9.10;99.90;;;;;;5114462;28;20486;-65
2022/11/10 04:16:44;;;;;;;6.55;2.55;;;9.20;99.90;;;;;;5115564;28;20054;-65
2022/11/10 04:19:10;;;;;;;4.35;2.30;;;9.20;99.90;;;;;;5115335;28;20461;-65
2022/11/10 04:21:35;;;;;;;8.00;2.70;;;9.20;99.90;;;;;;5114382;28;20044;-65
2022/11/10 04:24:01;;;;;;;5.95;2.72;;;9.20;99.90;;;;;;5113995;28;20372;-65
2022/11/10 04:26:27;;;;;;;5.57;2.63;;;9.20;99.90;;;;;;5115020;28;20040;-65
2022/11/10 04:28:55;;;;;;;3.45;1.88;;;9.10;99.90;;;;;;5115483;28;20036;-65
2022/11/10 04:31:22;;;;;;;11.18;2.63;;;9.10;99.90;;;;;;5115366;28;20484;-66
2022/11/10 04:33:49;;;;;;;8.13;2.22;;;9.40;99.90;;;;;;5115314;28;20036;-65
2022/11/10 04:36:18;;;;;;;3.85;2.33;;;9.20;99.90;;;;;;5113811;28;20043;-65
2022/11/10 04:38:43;;;;;;;5.40;2.33;;;9.10;99.90;;;;;;5115209;27;20597;-65
2022/11/10 04:41:09;;;;;;;6.82;2.70;;;9.10;99.90;;;;;;5115182;28;20119;-65
2022/11/10 04:43:35;;;;;;;13.45;2.95;;;9.30;99.90;;;;;;5115143;28;20040;-65
2022/11/10 04:46:02;;;;;;;10.52;3.00;;;9.40;99.90;;;;;;5113428;28;20051;-65
2022/11/10 04:48:28;;;;;;;6.25;3.00;;;9.20;99.90;;;;;;5115068;28;20089;-65
2022/11/10 04:50:54;;;;;;;7.45;2.45;;;9.10;99.90;;;;;;5115000;28;20035;-65
2022/11/10 04:53:20;;;;;;;9.50;3.03;;;9.20;99.90;;;;;;5114628;28;20380;-65
2022/11/10 04:55:46;;;;;;;7.90;3.08;;;9.20;99.90;;;;;;5113682;28;20046;-65
2022/11/10 04:58:13;;;;;;;4.90;2.47;;;9.30;99.90;;;;;;5113564;28;20099;-65
2022/11/10 05:00:40;;;;;;;9.70;3.00;;;9.20;99.90;;;;;;5114800;27;20032;-65
2022/11/10 05:03:08;;;;;;;10.00;3.70;;;9.20;99.90;;;;;;5114387;28;20031;-65
2022/11/10 05:05:34;;;;;;;5.95;2.70;;;9.30;99.90;;;;;;5114272;28;20044;-65
2022/11/10 05:08:00;;;;;;;4.20;2.45;;;9.30;99.90;;;;;;5114075;28;20092;-65
2022/11/10 05:10:26;;;;;;;5.65;2.45;;;9.30;99.90;;;;;;5114662;28;20084;-65
2022/11/10 05:12:53;;;;;;;7.80;3.13;;;9.40;99.90;;;;;;5114589;28;20039;-65
2022/11/10 05:15:19;;;;;;;7.40;3.00;;;9.30;99.90;;;;;;5114407;28;20046;-65
2022/11/10 05:17:49;;;;;;;6.97;2.58;;;9.40;99.90;;;;;;5114560;28;20039;-65
2022/11/10 05:20:19;;;;;;;6.93;3.55;;;9.40;99.90;;;;;;5114161;28;20035;-65
2022/11/10 05:23:36;;;;;;;10.15;2.75;;;9.40;99.90;;;;;;5112939;28;20075;-65
2022/11/10 05:25:32;;;;;;;10.70;3.78;;;9.30;99.90;;;;;;5112689;28;20048;-65
2022/11/10 05:27:58;;;;;;;6.60;3.00;;;9.70;99.90;;;;;;5114329;28;20082;-65
2022/11/10 05:30:24;;;;;;;5.63;3.10;;;9.30;99.90;;;;;;5114277;28;20035;-65
2022/11/10 05:32:49;;;;;;;5.07;3.00;;;9.30;99.90;;;;;;5114260;28;20123;-65
2022/11/10 05:35:15;;;;;;;8.73;3.17;;;9.60;99.90;;;;;;5113755;28;20046;-65
2022/11/10 05:37:41;;;;;;;6.45;2.92;;;9.40;99.90;;;;;;5114238;28;20031;-65
2022/11/10 05:40:07;;;;;;;6.43;3.75;;;9.40;99.90;;;;;;5113906;28;20114;-65
2022/11/10 05:42:33;;;;;;;10.45;2.88;;;9.40;99.90;;;;;;5114161;28;20046;-66
2022/11/10 05:44:58;;;;;;;12.20;3.30;;;9.60;99.90;;;;;;5113574;28;20052;-65
2022/11/10 05:47:24;;;;;;;8.70;2.58;;;9.30;99.90;;;;;;5112461;28;20036;-65
2022/11/10 05:49:50;;;;;;;9.95;3.53;;;9.30;99.90;;;;;;5114033;28;20392;-64
2022/11/10 05:52:16;;;;;;;4.30;2.42;;;9.40;99.90;;;;;;5114064;28;20035;-66
2022/11/10 05:54:41;;;;;;;6.57;2.63;;;9.40;99.90;;;;;;5113966;28;20032;-65
2022/11/10 05:57:07;;;;;;;6.32;2.33;;;9.90;99.90;;;;;;5113875;28;20044;-65
2022/11/10 05:59:32;;;;;;;10.82;2.40;;;9.40;99.90;;;;;;5112404;28;20425;-67
2022/11/10 06:01:58;;;;;;;9.63;3.45;;;9.40;99.90;;;;;;5113906;28;20436;-65
2022/11/10 06:04:24;;;;;;;8.55;2.60;;;9.40;99.90;;;;;;5113915;28;20035;-65
2022/11/10 06:06:49;;;;;;;9.88;3.13;;;9.40;99.90;;;;;;5113627;28;20077;-65
2022/11/10 06:09:15;;;;;;;10.00;3.30;;;9.40;99.90;;;;;;5113644;28;20047;-65
2022/11/10 06:11:40;;;;;;;10.07;3.17;;;9.40;99.90;;;;;;5113488;28;20044;-65
2022/11/10 06:14:06;;;;;;;4.18;2.58;;;9.50;99.90;;;;;;5113778;28;20044;-65
2022/11/10 06:16:32;;;;;;;9.98;3.50;;;9.40;99.90;;;;;;5112280;28;20062;-66
2022/11/10 06:18:57;;;;;;;7.72;3.00;;;9.40;99.90;;;;;;5116890;28;20039;-69
2022/11/10 06:21:23;;;;;;;4.85;2.90;;;9.40;99.90;;;;;;5117627;28;20032;-68
2022/11/10 06:23:49;;;;;;;4.45;2.72;;;9.50;99.90;;;;;;5117644;28;20031;-64
2022/11/10 06:26:14;;;;;;;9.88;3.78;;;9.50;99.90;;;;;;5117563;28;20079;-64
2022/11/10 06:28:40;;;;;;;7.35;3.00;;;9.50;99.90;;;;;;5099313;28;20048;-66
2022/11/10 06:31:05;;;;;;;7.45;3.47;;;9.60;99.90;;;;;;5116529;28;20517;-66
2022/11/10 06:33:31;;;;;;;3.95;2.55;;;9.50;99.90;;;;;;5117653;28;20035;-65
2022/11/10 06:35:57;;;;;;;6.20;3.28;;;9.50;99.90;;;;;;5117308;28;20088;-65
2022/11/10 06:38:22;;;;;;;10.45;3.22;;;9.50;99.90;;;;;;5117602;28;20078;-64
2022/11/10 06:40:48;;;;;;;8.65;2.72;;;9.50;99.90;;;;;;5117324;28;20489;-64
2022/11/10 06:43:14;;;;;;;6.68;2.55;;;9.50;99.90;;;;;;5115902;28;20444;-64
2022/11/10 06:45:39;;;;;;;10.95;3.83;;;9.50;99.90;;;;;;5115769;28;20067;-64
2022/11/10 06:48:09;;;;;;;9.15;2.90;;;9.50;99.90;;;;;;5117472;28;20497;-64
2022/11/10 06:50:35;;;;;;;9.68;3.33;;;9.60;99.90;;;;;;5117128;28;20529;-65
2022/11/10 06:53:01;;;;;;;11.15;3.20;;;9.50;99.90;;;;;;5117426;28;20069;-63
2022/11/10 06:55:28;;;;;;;6.15;2.60;;;9.50;99.90;;;;;;5117127;28;20048;-64
2022/11/10 06:57:53;;;;;;;7.03;3.10;;;9.50;99.90;;;;;;5116970;28;20036;-65
2022/11/10 07:00:20;;;;;;;6.93;3.35;;;9.50;99.90;;;;;;5115935;28;20042;-64
2022/11/10 07:02:45;;;;;;;9.98;4.00;;;9.50;99.90;;;;;;5117119;28;20074;-64
2022/11/10 07:05:11;;;;;;;5.72;3.60;;;9.70;99.90;;;;;;5117064;28;20482;-63
2022/11/10 07:07:37;;;;;;;7.38;3.05;;;9.50;99.90;;;;;;5116612;28;20482;-64
2022/11/10 07:10:03;;;;;;;14.30;3.58;;;9.60;99.90;;;;;;5132633;27;20071;-63
2022/11/10 07:12:28;;;;;;;4.45;2.83;;;9.60;99.90;;;;;;5115214;28;20087;-66
2022/11/10 07:14:54;;;;;;;10.52;3.30;;;9.60;99.90;;;;;;5116324;28;20069;-64
2022/11/10 07:17:21;;;;;;;7.32;3.22;;;9.80;99.90;;;;;;5116698;28;20115;-64
2022/11/10 07:19:46;;;;;;;7.35;3.25;;;9.70;99.90;;;;;;5116492;28;20054;-64
2022/11/10 07:22:12;;;;;;;8.88;3.13;;;9.70;99.90;;;;;;5116392;28;20391;-65
2022/11/10 07:24:38;;;;;;;6.18;3.03;;;9.80;99.90;;;;;;5116490;28;20363;-64
2022/11/10 07:27:03;;;;;;;8.27;3.28;;;9.80;99.90;;;;;;5116446;27;20040;-64
2022/11/10 07:29:29;;;;;;;8.82;3.33;;;9.90;99.90;;;;;;5114624;28;20043;-64
2022/11/10 07:31:55;;;;;;;13.63;3.05;;;10.10;99.90;;;;;;5115519;28;20075;-64
2022/11/10 07:34:20;;;;;;;10.80;3.47;;;10.00;99.90;;;;;;5115157;28;20106;-64
2022/11/10 07:36:46;;;;;;;10.45;3.08;;;10.00;99.90;;;;;;5115353;28;20040;-64
2022/11/10 07:39:12;;;;;;;10.98;3.13;;;10.10;99.90;;;;;;5115379;28;20114;-64
2022/11/10 07:41:38;;;;;;;6.55;3.03;;;10.10;99.90;;;;;;5115095;27;20398;-64
2022/11/10 07:44:04;;;;;;;9.68;3.00;;;10.10;99.90;;;;;;5114941;28;20039;-64
2022/11/10 07:46:29;;;;;;;6.05;3.33;;;10.10;99.90;;;;;;5113484;28;20055;-65
2022/11/10 07:48:55;;;;;;;13.63;3.25;;;10.10;99.90;;;;;;5115207;28;20133;-64
2022/11/10 07:51:21;;;;;;;11.05;3.60;;;10.00;99.90;;;;;;5115074;28;20136;-65
2022/11/10 07:53:46;;;;;;;4.97;2.47;;;10.00;99.90;;;;;;5114833;28;20494;-71
2022/11/10 07:56:13;;;;;;;6.75;2.50;;;10.00;99.90;;;;;;5113500;28;20148;-65
2022/11/10 07:58:38;;;;;;;4.20;2.50;;;10.00;99.90;;;;;;5114999;28;20118;-66
2022/11/10 08:01:04;;;;;;;13.05;3.00;;;10.00;99.90;;;;;;5114909;28;20129;-65
2022/11/10 08:03:31;;;;;;;10.88;3.05;;;10.20;99.90;;;;;;5114773;28;20429;-65
2022/11/10 08:05:57;;;;;;;10.82;3.33;;;10.10;99.90;;;;;;5113253;28;20075;-65
2022/11/10 08:08:23;;;;;;;8.10;2.92;;;10.10;99.90;;;;;;5113122;28;20132;-65
2022/11/10 08:10:48;;;;;;;10.02;2.83;;;10.10;99.90;;;;;;5114453;28;20392;-65
2022/11/10 08:13:14;;;;;;;8.95;3.45;;;10.00;99.90;;;;;;5113424;28;20036;-65
2022/11/10 08:15:40;;;;;;;10.75;2.42;;;10.00;99.90;;;;;;5114781;28;20053;-64
2022/11/10 08:18:16;;;;;;;7.20;2.90;;;10.10;99.90;;;;;;5114737;28;20036;-65
2022/11/10 08:20:41;;;;;;;8.40;3.50;;;10.10;99.90;;;;;;5114429;28;20093;-64
2022/11/10 08:23:07;;;;;;;10.88;2.92;;;10.10;99.90;;;;;;5113094;28;20047;-65
2022/11/10 08:25:35;;;;;;;8.88;4.40;;;10.10;99.90;;;;;;5114605;28;20062;-65
2022/11/10 08:28:04;;;;;;;5.05;2.70;;;10.10;99.90;;;;;;5114515;28;20093;-64
2022/11/10 08:30:30;;;;;;;6.78;3.38;;;10.10;99.90;;;;;;5114562;28;20035;-65
2022/11/10 08:32:59;;;;;;;9.15;2.97;;;10.20;99.90;;;;;;5113168;28;20083;-65
2022/11/10 08:35:28;;;;;;;5.53;3.40;;;10.10;99.90;;;;;;5112664;28;20111;-64
2022/11/10 08:37:54;;;;;;;14.15;4.18;;;10.20;99.90;;;;;;5112984;28;20356;-64
2022/11/10 08:40:21;;;;;;;10.00;3.65;;;10.30;99.90;;;;;;5114247;28;20036;-65
2022/11/10 08:42:57;;;;;;;10.00;5.55;;;10.40;99.90;;;;;;5114179;28;20491;-65
2022/11/10 08:45:23;;;;;;;8.95;3.92;;;10.50;99.90;;;;;;5112506;28;20093;-65
2022/11/10 08:47:56;;;;;;;9.50;3.78;;;10.60;99.90;;;;;;5114146;28;20082;-65
2022/11/10 08:50:22;;;;;;;4.25;2.95;;;10.70;99.90;;;;;;5113912;28;20036;-66
2022/11/10 08:52:48;;;;;;;5.47;3.40;;;10.70;99.90;;;;;;5114029;28;20544;-65
2022/11/10 08:55:13;;;;;;;7.15;4.22;;;10.80;99.90;;;;;;5112671;28;20051;-64
2022/11/10 08:57:39;;;;;;;9.07;3.70;;;10.90;99.90;;;;;;5113633;28;20071;-64
2022/11/10 09:00:05;;;;;;;9.25;2.92;;;10.90;99.90;;;;;;5113925;28;20043;-65
2022/11/10 09:02:31;;;;;;;7.95;3.42;;;11.00;99.90;;;;;;5113904;28;20043;-65
2022/11/10 09:04:56;;;;;;;9.32;4.15;;;11.00;99.90;;;;;;5113833;28;20042;-64
2022/11/10 09:07:22;;;;;;;9.38;3.42;;;11.10;99.90;;;;;;5113687;28;20138;-64
2022/11/10 09:09:48;;;;;;;8.13;3.38;;;11.00;99.90;;;;;;5113820;28;20498;-64
2022/11/10 09:12:14;;;;;;;11.32;3.65;;;11.20;99.90;;;;;;5113739;28;20118;-65
2022/11/10 09:14:39;;;;;;;6.85;3.28;;;11.10;99.90;;;;;;5113395;28;20038;-65
2022/11/10 09:17:05;;;;;;;6.32;2.72;;;11.10;99.90;;;;;;5113310;28;20044;-64
2022/11/10 09:19:31;;;;;;;7.30;3.53;;;11.10;99.90;;;;;;5112023;28;20044;-65
2022/11/10 09:21:56;;;;;;;8.40;3.28;;;11.20;99.90;;;;;;5113510;28;20065;-65
2022/11/10 09:24:22;;;;;;;7.45;3.60;;;11.20;99.90;;;;;;5111869;28;20039;-68
2022/11/10 09:26:48;;;;;;;14.77;4.07;;;11.30;99.90;;;;;;5113161;28;20118;-65
2022/11/10 09:29:13;;;;;;;8.80;3.60;;;11.30;99.90;;;;;;5113343;28;20088;-65
2022/11/10 09:31:41;;;;;;;9.98;3.58;;;11.40;99.90;;;;;;5113390;28;20432;-64
2022/11/10 09:34:08;;;;;;;8.02;3.92;;;11.60;99.90;;;;;;5113297;28;20408;-65
2022/11/10 09:36:34;;;;;;;9.65;3.80;;;11.60;99.90;;;;;;5113223;28;20118;-65
2022/11/10 09:39:00;;;;;;;5.32;2.80;;;11.60;99.90;;;;;;5112993;28;20118;-64
2022/11/10 09:41:28;;;;;;;7.72;2.33;;;11.60;99.90;;;;;;5113211;28;20169;-65
2022/11/10 09:44:13;;;;;;;8.15;2.95;;;11.70;99.90;;;;;;5112851;28;20059;-64
2022/11/10 09:46:47;;;;;;;7.05;2.60;;;11.80;99.90;;;;;;5112745;28;20052;-65
2022/11/10 09:49:18;;;;;;;9.80;3.33;;;11.90;99.90;;;;;;5113131;28;20039;-65
2022/11/10 09:51:45;;;;;;;6.10;3.17;;;11.90;99.90;;;;;;5112810;28;20035;-65
2022/11/10 09:54:26;;;;;;;6.20;2.67;;;12.10;99.90;;;;;;5112781;28;20106;-65
2022/11/10 09:56:54;;;;;;;8.77;3.38;;;;;;;;;;5113001;28;20044;-65
2022/11/10 09:59:28;;;;;;;7.85;3.08;;;12.30;99.90;;;;;;5112653;28;20040;-65
2022/11/10 10:02:19;;;;;;;6.07;2.55;;;12.50;99.90;;;;;;5111706;28;20054;-65
2022/11/10 10:04:58;;;;;;;4.47;2.85;;;12.50;99.90;;;;;;5111467;28;20039;-65
2022/11/10 10:07:25;;;;;;;6.70;2.45;;;12.40;99.90;;;;;;5112611;28;20092;-65
2022/11/10 10:10:12;;;;;;;9.90;3.05;;;12.50;99.90;;;;;;5112923;28;20120;-65
2022/11/10 10:12:49;;;;;;;6.70;2.83;;;12.60;99.90;;;;;;5112906;28;20429;-65
2022/11/10 10:15:22;;;;;;;7.28;2.80;;;12.70;99.90;;;;;;5111457;28;20039;-65
2022/11/10 10:18:03;;;;;;;7.20;2.38;;;12.70;99.90;;;;;;5112798;28;20040;-65
2022/11/10 10:20:34;;;;;;;;;;;12.70;99.90;;;;;;5113287;28;20035;-65
2022/11/10 10:23:25;;;;;;;7.15;3.08;;;12.70;99.90;;;;;;5112573;28;20002;-65
2022/11/10 10:25:51;;;;;;;;;;;12.80;99.90;;;;;;5113254;28;20043;-65
2022/11/10 10:28:17;;;;;;;5.65;2.80;;;12.80;99.90;;;;;;5112401;28;19920;-65
2022/11/10 10:30:44;;;;;;;10.30;3.50;;;12.80;99.90;;;;;;5112727;28;20051;-65
2022/11/10 10:33:16;;;;;;;10.73;3.70;;;12.90;99.90;;;;;;5111144;28;20048;-65
2022/11/10 10:35:43;;;;;;;8.40;3.08;;;12.90;99.90;;;;;;5112667;28;20075;-65
2022/11/10 10:38:21;;;;;;;9.18;2.92;;;13.00;99.90;;;;;;5112702;28;20497;-65
2022/11/10 10:40:50;;;;;;;7.82;2.65;;;13.00;99.90;;;;;;5112732;28;20046;-65
2022/11/10 10:43:15;;;;;;;10.65;3.20;;;13.10;99.90;;;;;;5112558;28;20053;-65
2022/11/10 10:45:41;;;;;;;11.23;2.88;;;13.10;99.90;;;;;;5112167;28;20130;-66
2022/11/10 10:48:33;;;;;;;4.00;2.28;;;13.10;99.90;;;;;;5112703;28;20059;-65
2022/11/10 10:50:59;;;;;;;7.40;2.80;;;13.00;99.90;;;;;;5109408;28;20495;-65
2022/11/10 10:53:25;;;;;;;9.07;2.05;;;13.00;99.90;;;;;;5112473;28;20100;-65
2022/11/10 10:56:03;;;;;;;8.05;2.28;;;13.10;99.90;;;;;;5110914;28;20039;-65
2022/11/10 10:59:15;;;;;;;13.30;2.80;;;13.10;99.90;;;;;;5128050;28;20049;-65
2022/11/10 11:01:42;;;;;;;6.55;2.55;;;13.20;99.90;;;;;;5049312;28;20045;-64
2022/11/10 11:04:29;;;;;;;10.45;3.28;;;13.20;99.90;;;;;;5049427;28;20527;-64
2022/11/10 11:06:57;;;;;;;9.95;2.35;;;13.30;99.90;;;;;;5095337;28;20122;-68
2022/11/10 11:09:26;;;;;;;3.70;1.83;;;13.40;99.90;;;;;;5116122;28;20035;-64
2022/11/10 11:12:05;;;;;;;2.15;1.45;;;13.50;99.90;;;;;;5115782;28;20062;-64
2022/11/10 11:14:31;;;;;;;4.38;2.05;;;13.60;99.90;;;;;;5116020;28;20390;-63
2022/11/10 11:17:01;;;;;;;8.10;1.67;;;13.60;99.90;;;;;;5115900;28;20039;-63
2022/11/10 11:19:33;;;;;;;3.33;1.33;;;13.60;99.90;;;;;;5115947;28;20047;-65
2022/11/10 11:22:34;;;;;;;4.22;1.75;;;13.60;99.90;;;;;;5115884;28;20089;-64
2022/11/10 11:25:26;;;;;;;5.43;1.88;;;13.60;99.90;;;;;;5115847;28;20502;-68
2022/11/10 11:28:37;;;;;;;3.17;1.23;;;13.50;99.90;;;;;;5115814;28;20498;-65
2022/11/10 11:31:25;;;;;;;3.67;1.25;;;13.50;99.90;;;;;;5086528;28;20123;-64
2022/11/10 11:34:21;;;;;;;3.60;1.48;;;13.50;99.90;;;;;;5115384;28;20035;-65
2022/11/10 11:37:12;;;;;;;6.40;1.50;;;13.50;99.90;;;;;;5115560;28;20517;-65
2022/11/10 11:40:06;;;;;;;6.43;0.95;;;13.60;99.90;;;;;;5115530;28;20114;-65
2022/11/10 11:42:44;;;;;;;2.60;1.00;;;13.60;99.90;;;;;;5115244;28;20501;-65
2022/11/10 11:45:24;;;;;;;3.22;1.10;;;13.70;99.90;;;;;;5113728;28;20055;-66
2022/11/10 11:48:22;;;;;;;4.35;1.23;;;13.70;99.90;;;;;;5115330;28;20510;-65
2022/11/10 11:50:56;;;;;;;5.97;1.13;;;13.80;99.90;;;;;;5102946;28;20150;-65
2022/11/10 11:53:55;;;;;;;4.05;1.45;;;13.80;99.90;;;;;;5115047;28;20451;-65
2022/11/10 11:56:34;;;;;;;4.88;0.93;;;13.80;99.90;;;;;;5115147;28;20093;-65
2022/11/10 11:59:09;;;;;;;7.18;1.15;;;13.90;99.90;;;;;;5114934;28;20027;-65
2022/11/10 12:01:56;;;;;;;1.60;1.00;;;13.90;99.90;;;;;;5114755;28;20052;-65
2022/11/10 12:04:28;;;;;;;2.83;0.88;;;14.00;99.90;;;;;;5115061;28;20494;-65
2022/11/10 12:07:27;;;;;;;5.70;1.20;;;13.90;99.90;;;;;;5114777;28;20050;-65
2022/11/10 12:10:27;;;;;;;7.85;1.65;;;14.00;99.90;;;;;;5114978;28;20510;-65
2022/11/10 12:13:01;;;;;;;11.13;1.08;;;14.00;99.90;;;;;;5114579;28;20035;-65
2022/11/10 12:15:50;;;;;;;5.13;1.20;;;14.00;99.90;;;;;;5114409;28;20051;-65
2022/11/10 12:18:40;;;;;;;7.45;1.08;;;14.10;99.90;;;;;;5114518;28;20089;-65
2022/11/10 12:21:27;;;;;;;7.63;0.80;;;14.10;99.90;;;;;;5114465;28;20083;-65
2022/11/10 12:24:05;;;;;;;4.10;1.05;;;14.10;99.90;;;;;;5113129;28;20065;-66
2022/11/10 12:26:40;;;;;;;4.70;1.17;;;14.10;99.90;;;;;;5114365;27;20047;-65
2022/11/10 12:29:25;;;;;;;1.17;0.63;;;14.00;99.90;;;;;;5114636;28;20036;-65
2022/11/10 12:31:56;;;;;;;2.58;0.75;;;14.00;99.90;;;;;;5114249;28;20039;-65
2022/11/10 12:34:25;;;;;;;;;;;13.90;99.90;;;;;;5115050;28;20126;-65
2022/11/10 12:36:51;;;;;;;8.20;1.10;;;13.90;99.90;;;;;;5114097;28;19969;-65
2022/11/10 12:39:22;;;;;;;6.47;1.38;;;13.90;99.90;;;;;;5114110;28;20126;-65
2022/11/10 12:41:56;;;;;;;5.05;1.25;;;13.90;99.90;;;;;;5114146;28;20398;-65
2022/11/10 12:44:27;;;;;;;2.88;1.15;;;14.00;99.90;;;;;;5113991;28;20050;-65
2022/11/10 12:46:57;;;;;;;6.63;1.77;;;14.00;99.90;;;;;;5113647;28;20051;-65
2022/11/10 12:49:31;;;;;;;7.33;1.43;;;14.10;99.90;;;;;;5114269;27;20079;-65
2022/11/10 12:52:08;;;;;;;4.30;0.75;;;14.00;99.90;;;;;;5114102;28;20277;-66
2022/11/10 12:54:34;;;;;;;1.70;0.60;;;14.00;99.90;;;;;;5114006;28;20039;-65
2022/11/10 12:57:12;;;;;;;3.30;0.80;;;14.00;99.90;;;;;;5113977;28;20039;-65
2022/11/10 12:59:40;;;;;;;3.30;0.70;;;14.10;99.90;;;;;;5112404;28;20035;-65
2022/11/10 13:02:27;;;;;;;6.75;1.55;;;14.00;99.90;;;;;;5112952;28;20104;-66
2022/11/10 13:05:12;;;;;;;10.63;1.95;;;14.00;99.90;;;;;;5113566;28;20035;-66
2022/11/10 13:07:42;;;;;;;4.57;0.73;;;14.00;99.90;;;;;;5113824;28;20039;-66
2022/11/10 13:10:21;;;;;;;2.47;0.80;;;14.00;99.90;;;;;;5113758;28;20057;-66
2022/11/10 13:13:03;;;;;;;2.63;0.63;;;14.00;99.90;;;;;;5113710;28;20047;-66
2022/11/10 13:15:38;;;;;;;2.03;0.47;;;13.90;99.90;;;;;;5113555;28;20119;-66